Aérodrome :
LOGIN :

S'inscrire | Disclaimer

   EN    FR    IT 

 










Légende :    VFR   VFR Marginal   IFR   IFR Intensif   IFR Très Intensif
Visi : 
Plafond : 
>= 8 km
>= 3000ft
5 à 8 km
1000 à 3000 ft
1500m à 5 km
500 à 1000 ft
800 à 1500m
200 à 500 ft
< 800m
< 200 ft
Symboles :   Orages  Brouillard  Fortes neiges  Fortes précipitations  Vent > 20 kt
SIGMETs :   Divers  Orages  Givrage  Turbulence  Onde Orograph.  Cendres Volcan.







- Altitude de l'aérodrome : 1273 ft
- Code IATA : LJU


LJLJ - Ljubljana

DERNIER METAR :
  • 190130Z VRB02KT 8000 MIFG FEW001 SCT035 BKN050 M02/M02 Q1019 NOSIG

METARs EXPIRÉS :
  • 190100Z VRB01KT 8000 MIFG FEW001 SCT035 BKN050 M02/M02 Q1019 NOSIG
  • 190030Z 00000KT 7000 0400SE R30/0600N PRFG FEW001 SCT035 BKN050 M02/M02 Q1019 NOSIG
  • 190000Z 32002KT 0400 R30/0450N FZFG FEW001 SCT015 BKN050 M02/M03 Q1019 NOSIG
  • 182330Z 00000KT 0500 R30/0450V0600N FZFG FEW001 SCT015 BKN047 M02/M02 Q1019 NOSIG
  • 182300Z VRB01KT 7000 MIFG FEW001 SCT010 BKN045 M01/M01 Q1019 NOSIG

TAF TAF LJLJ
Valide du 19 à 00h jusqu'au 20 à 00h UTC


182300Z 1900/1924 VRB01KT 7000 MIFG FEW001 SCT010 BKN045
PROB40
TEMPO 1900/1908 0600 FZFG VV001
BECMG 1909/1911 10005KT 9999 NSW
Pas de NOTAMs connus pour ce terrain.
1 SIGMET publié pour la FIR Ljubljana (LJLA) :
 
Turbulence forte
LJLA SIGMET 2 VALID 182300/190200 LJLJ
LJLA LJUBLJANA FIR SEV TURB FCST SW OF LINE N4607 E01337 - N4539 E01434 SFC/5000FT STNR NC=



MET'MAP, la Météo Aéronautique d'un coup d'oeil ! - Copyright ORBIFLY Décembre 2007 - Disclaimer

ORBIFLY MET'MAP TEAM :

Programmation & Développement : Alexandra Zaïnal
Conception & Développement : Baudouin d'Aumeries
Co-Programmation & Développement : Marc-Olivier Méhu
Soutien technique & logistique : Manuel Goepfert

Contact : metmap@orbifly.com




SOURCES & CREDITS :

   NOAA